Time;durP1;ratioP1;P1;durP2;ratioP2;P2;SDS_P1;SDS_P2;PMS_P1;PMS_P2;Temp;Humidity;BMP_temperature;BMP_pressure;BME280_temperature;BME280_humidity;BME280_pressure;Samples;Min_cycle;Max_cycle;Signal;HPM_P1;HPM_P2
2022/10/14 00:02:03;;;;;;;131.05;60.63;;;12.40;99.90;;;;;;5106607;28;20441;-66
2022/10/14 00:04:29;;;;;;;110.78;60.40;;;12.30;99.90;;;;;;5104391;28;20055;-66
2022/10/14 00:06:54;;;;;;;122.72;65.22;;;12.20;99.90;;;;;;5096509;28;20086;-67
2022/10/14 00:09:20;;;;;;;122.45;60.88;;;12.20;99.90;;;;;;5098431;28;20100;-67
2022/10/14 00:11:46;;;;;;;113.97;62.38;;;12.30;99.90;;;;;;5090582;28;20044;-67
2022/10/14 00:14:14;;;;;;;135.30;66.97;;;12.20;99.90;;;;;;5102293;28;20416;-66
2022/10/14 00:16:41;;;;;;;108.80;59.72;;;12.30;99.90;;;;;;5099138;28;20051;-66
2022/10/14 00:19:07;;;;;;;110.18;59.72;;;12.30;99.90;;;;;;5106855;28;20044;-67
2022/10/14 00:21:35;;;;;;;118.57;63.55;;;12.30;99.90;;;;;;5101211;28;20051;-66
2022/10/14 00:24:01;;;;;;;106.85;58.30;;;12.50;99.90;;;;;;5103444;28;20051;-66
2022/10/14 00:26:33;;;;;;;118.25;63.20;;;12.20;99.90;;;;;;5109298;28;20540;-66
2022/10/14 00:28:59;;;;;;;108.25;53.83;;;12.20;99.90;;;;;;5108933;28;20047;-66
2022/10/14 00:31:26;;;;;;;103.03;56.25;;;12.20;99.90;;;;;;5107477;28;20042;-66
2022/10/14 00:33:52;;;;;;;104.07;55.63;;;12.10;99.90;;;;;;5102608;28;20040;-67
2022/10/14 00:36:20;;;;;;;107.38;56.80;;;12.20;99.90;;;;;;5105905;28;20040;-67
2022/10/14 00:38:46;;;;;;;110.15;57.28;;;12.20;99.90;;;;;;5099763;28;20044;-67
2022/10/14 00:41:28;;;;;;;154.80;65.40;;;12.20;99.90;;;;;;5108944;28;20046;-67
2022/10/14 00:44:12;;;;;;;109.40;57.88;;;12.20;99.90;;;;;;5107111;28;20155;-66
2022/10/14 00:46:46;;;;;;;104.53;54.75;;;12.30;99.90;;;;;;5103810;28;20048;-67
2022/10/14 00:49:23;;;;;;;120.65;59.58;;;12.20;99.90;;;;;;5108863;28;20115;-66
2022/10/14 00:51:57;;;;;;;133.67;61.20;;;12.10;99.90;;;;;;5089883;28;20144;-67
2022/10/14 00:54:28;;;;;;;106.50;55.78;;;12.10;99.90;;;;;;5092235;28;20504;-66
2022/10/14 00:56:54;;;;;;;105.57;56.90;;;12.10;99.90;;;;;;5103717;28;20405;-67
2022/10/14 00:59:20;;;;;;;100.85;53.28;;;12.10;99.90;;;;;;5106040;28;20046;-67
2022/10/14 01:01:46;;;;;;;165.52;67.80;;;12.00;99.90;;;;;;5107670;28;20118;-66
2022/10/14 01:04:11;;;;;;;113.47;57.60;;;12.10;99.90;;;;;;5097823;28;20382;-67
2022/10/14 01:06:58;;;;;;;102.43;55.80;;;12.00;99.90;;;;;;5094860;28;20048;-66
2022/10/14 01:09:53;;;;;;;95.38;51.88;;;12.00;99.90;;;;;;5101404;28;20450;-66
2022/10/14 01:12:42;;;;;;;97.80;56.10;;;12.00;99.90;;;;;;5102730;28;20052;-67
2022/10/14 01:15:36;;;;;;;104.75;54.38;;;12.00;99.90;;;;;;5089518;28;20044;-66
2022/10/14 01:18:29;;;;;;;97.45;55.30;;;12.00;99.90;;;;;;5098144;28;20054;-67
2022/10/14 01:21:13;;;;;;;91.07;49.30;;;12.00;99.90;;;;;;5104497;28;20131;-67
2022/10/14 01:23:56;;;;;;;113.97;55.03;;;12.00;99.90;;;;;;5096018;28;20489;-67
2022/10/14 01:26:47;;;;;;;98.40;51.75;;;12.00;99.90;;;;;;5108184;28;20488;-67
2022/10/14 01:29:16;;;;;;;105.30;51.75;;;12.00;99.90;;;;;;5102327;28;20054;-66
2022/10/14 01:31:49;;;;;;;114.47;52.65;;;12.00;99.90;;;;;;5106622;28;20089;-67
2022/10/14 01:34:24;;;;;;;196.43;61.33;;;12.00;99.90;;;;;;5107935;28;20047;-67
2022/10/14 01:36:58;;;;;;;91.72;45.45;;;11.90;99.90;;;;;;5088745;28;20054;-67
2022/10/14 01:39:29;;;;;;;97.82;45.25;;;11.90;99.90;;;;;;5090762;28;20180;-67
2022/10/14 01:42:18;;;;;;;86.68;44.80;;;11.90;99.90;;;;;;5107906;28;20079;-66
2022/10/14 01:44:50;;;;;;;280.13;64.63;;;11.90;99.90;;;;;;5095262;28;20092;-67
2022/10/14 01:47:19;;;;;;;425.92;69.00;;;11.90;99.90;;;;;;5107388;28;20047;-67
2022/10/14 01:50:13;;;;;;;68.50;36.90;;;11.80;99.90;;;;;;5100102;28;20417;-67
2022/10/14 01:52:46;;;;;;;92.00;36.95;;;11.70;99.90;;;;;;5104608;28;20513;-67
2022/10/14 01:55:16;;;;;;;183.70;48.17;;;11.60;99.90;;;;;;5098379;28;20043;-67
2022/10/14 01:57:44;;;;;;;61.55;36.78;;;11.60;99.90;;;;;;5107201;28;20036;-67
2022/10/14 02:00:10;;;;;;;159.52;46.45;;;11.60;99.90;;;;;;5107051;28;20043;-66
2022/10/14 02:02:37;;;;;;;93.82;38.70;;;11.60;99.90;;;;;;5103303;28;20059;-66
2022/10/14 02:05:13;;;;;;;81.10;38.38;;;11.70;99.90;;;;;;5095514;28;20048;-67
2022/10/14 02:07:48;;;;;;;222.82;47.20;;;11.60;99.90;;;;;;5095962;28;20510;-67
2022/10/14 02:10:32;;;;;;;67.32;34.88;;;11.70;99.90;;;;;;5108702;28;20493;-66
2022/10/14 02:13:13;;;;;;;241.60;51.08;;;11.60;99.90;;;;;;5097008;28;20424;-67
2022/10/14 02:15:51;;;;;;;102.35;36.47;;;11.60;99.90;;;;;;5110365;28;20039;-66
2022/10/14 02:18:37;;;;;;;88.60;36.90;;;11.60;99.90;;;;;;5111180;28;20040;-66
2022/10/14 02:21:23;;;;;;;89.68;34.55;;;11.50;99.90;;;;;;5110553;27;20104;-67
2022/10/14 02:24:03;;;;;;;123.43;34.63;;;11.50;99.90;;;;;;5095814;28;20531;-66
2022/10/14 02:26:30;;;;;;;57.47;29.67;;;11.50;99.90;;;;;;5097663;28;20055;-67
2022/10/14 02:28:57;;;;;;;74.93;29.40;;;11.50;99.90;;;;;;5094571;28;20131;-66
2022/10/14 02:31:24;;;;;;;159.45;33.00;;;11.40;99.90;;;;;;5098831;28;20051;-66
2022/10/14 02:33:54;;;;;;;89.13;27.33;;;11.50;99.90;;;;;;5099637;28;20055;-67
2022/10/14 02:36:22;;;;;;;52.72;28.27;;;11.50;99.90;;;;;;5108941;28;20032;-66
2022/10/14 02:38:51;;;;;;;53.38;24.75;;;11.50;99.90;;;;;;5097534;28;20429;-67
2022/10/14 02:41:20;;;;;;;66.68;27.23;;;11.50;99.90;;;;;;5102584;28;20408;-67
2022/10/14 02:43:47;;;;;;;123.15;29.70;;;11.50;99.90;;;;;;5098981;28;20050;-66
2022/10/14 02:46:13;;;;;;;63.55;25.25;;;11.50;99.90;;;;;;5107386;28;20050;-66
2022/10/14 02:48:38;;;;;;;76.95;28.17;;;11.60;99.90;;;;;;5110305;28;20168;-66
2022/10/14 02:51:04;;;;;;;58.08;24.98;;;11.50;99.90;;;;;;5110429;28;20127;-67
2022/10/14 02:53:30;;;;;;;54.67;25.75;;;11.40;99.90;;;;;;5097008;28;20043;-66
2022/10/14 02:55:56;;;;;;;70.40;28.02;;;11.50;99.90;;;;;;5097313;28;20119;-67
2022/10/14 02:58:21;;;;;;;49.42;25.42;;;11.50;99.90;;;;;;5089749;28;20044;-67
2022/10/14 03:00:48;;;;;;;61.50;29.08;;;11.50;99.90;;;;;;5072049;28;20049;-67
2022/10/14 03:03:14;;;;;;;55.67;26.35;;;11.50;99.90;;;;;;5092220;28;20052;-67
2022/10/14 03:05:42;;;;;;;56.25;29.30;;;11.40;99.90;;;;;;5096850;28;20532;-67
2022/10/14 03:08:07;;;;;;;59.88;30.30;;;11.40;99.90;;;;;;5098745;28;20048;-66
2022/10/14 03:10:33;;;;;;;59.45;30.88;;;11.40;99.90;;;;;;5106639;28;20042;-67
2022/10/14 03:12:59;;;;;;;68.65;31.67;;;11.40;99.90;;;;;;5109237;28;20035;-67
2022/10/14 03:15:24;;;;;;;65.00;31.67;;;11.40;99.90;;;;;;5109975;28;20127;-66
2022/10/14 03:17:50;;;;;;;81.00;30.83;;;11.50;99.90;;;;;;5109982;28;20040;-66
2022/10/14 03:20:16;;;;;;;56.25;27.88;;;11.40;99.90;;;;;;5097729;28;20059;-66
2022/10/14 03:22:41;;;;;;;58.28;28.35;;;11.40;99.90;;;;;;5106006;28;20497;-66
2022/10/14 03:25:08;;;;;;;87.57;29.75;;;11.40;99.90;;;;;;5103403;28;20043;-66
2022/10/14 03:27:33;;;;;;;42.20;24.42;;;11.30;99.90;;;;;;5096642;28;20052;-67
2022/10/14 03:29:59;;;;;;;71.38;26.70;;;11.30;99.90;;;;;;5108971;28;20040;-67
2022/10/14 03:32:24;;;;;;;36.58;20.95;;;11.30;99.90;;;;;;5109302;28;20186;-67
2022/10/14 03:34:50;;;;;;;52.45;22.85;;;11.20;99.90;;;;;;5093610;28;20039;-66
2022/10/14 03:37:16;;;;;;;43.83;20.20;;;11.20;99.90;;;;;;5104911;28;20497;-67
2022/10/14 03:39:41;;;;;;;64.40;23.10;;;11.20;99.90;;;;;;5097962;28;20378;-67
2022/10/14 03:42:07;;;;;;;47.90;21.67;;;11.10;99.90;;;;;;5105232;28;20485;-67
2022/10/14 03:44:33;;;;;;;32.80;21.05;;;11.10;99.90;;;;;;5104685;28;20444;-66
2022/10/14 03:46:58;;;;;;;41.20;21.17;;;11.10;99.90;;;;;;5103858;28;20044;-66
2022/10/14 03:49:24;;;;;;;40.40;22.77;;;11.00;99.90;;;;;;5104089;28;20043;-67
2022/10/14 03:51:50;;;;;;;39.13;22.23;;;11.10;99.90;;;;;;5091139;28;20161;-67
2022/10/14 03:54:15;;;;;;;36.90;22.33;;;11.00;99.90;;;;;;5108755;28;20124;-66
2022/10/14 03:56:41;;;;;;;82.85;26.67;;;11.00;99.90;;;;;;5103812;28;20522;-67
2022/10/14 03:59:07;;;;;;;58.13;26.52;;;11.00;99.90;;;;;;5109765;28;20080;-67
2022/10/14 04:01:32;;;;;;;42.58;25.85;;;11.00;99.90;;;;;;5099791;28;20039;-67
2022/10/14 04:03:58;;;;;;;44.53;24.58;;;11.00;99.90;;;;;;5097838;28;20039;-67
2022/10/14 04:06:23;;;;;;;47.53;24.90;;;11.00;99.90;;;;;;5101344;28;20522;-67
2022/10/14 04:08:49;;;;;;;54.25;27.63;;;11.00;99.90;;;;;;5107595;28;20073;-67
2022/10/14 04:11:16;;;;;;;42.78;24.25;;;11.10;99.90;;;;;;5108923;28;20039;-67
2022/10/14 04:13:42;;;;;;;51.72;25.55;;;11.10;99.90;;;;;;5106836;28;20122;-66
2022/10/14 04:16:09;;;;;;;41.95;24.55;;;11.00;99.90;;;;;;5090860;28;20040;-66
2022/10/14 04:18:35;;;;;;;56.70;28.53;;;11.10;99.90;;;;;;5104866;28;20038;-67
2022/10/14 04:21:09;;;;;;;48.97;25.55;;;11.10;99.90;;;;;;5108565;28;20309;-66
2022/10/14 04:23:35;;;;;;;64.18;29.40;;;11.10;99.90;;;;;;5105937;28;20114;-67
2022/10/14 04:26:08;;;;;;;59.78;27.63;;;11.10;99.90;;;;;;5091709;28;20127;-67
2022/10/14 04:28:35;;;;;;;65.57;28.92;;;11.10;99.90;;;;;;5101510;28;20042;-67
2022/10/14 04:31:02;;;;;;;73.05;31.35;;;11.10;99.90;;;;;;5105097;28;20039;-66
2022/10/14 04:33:28;;;;;;;69.63;31.05;;;11.00;99.90;;;;;;5104273;28;20065;-66
2022/10/14 04:35:58;;;;;;;77.40;33.95;;;11.10;99.90;;;;;;5105246;28;20040;-67
2022/10/14 04:38:24;;;;;;;83.28;33.80;;;11.10;99.90;;;;;;5090692;28;20108;-66
2022/10/14 04:40:50;;;;;;;94.07;35.63;;;11.10;99.90;;;;;;5099200;28;20043;-66
2022/10/14 04:43:15;;;;;;;94.30;34.25;;;11.10;99.90;;;;;;5102722;28;20467;-66
2022/10/14 04:45:42;;;;;;;82.55;35.00;;;11.10;99.90;;;;;;5094104;28;20044;-67
2022/10/14 04:48:08;;;;;;;119.70;39.75;;;11.10;99.90;;;;;;5094017;28;20036;-66
2022/10/14 04:50:33;;;;;;;100.57;38.15;;;11.20;99.90;;;;;;5108389;28;20048;-67
2022/10/14 04:52:59;;;;;;;95.82;39.70;;;11.20;99.90;;;;;;5104284;28;20079;-66
2022/10/14 04:55:25;;;;;;;122.90;40.58;;;11.10;99.90;;;;;;5090886;28;20071;-66
2022/10/14 04:57:51;;;;;;;122.32;42.47;;;11.20;99.90;;;;;;5106266;28;20042;-67
2022/10/14 05:00:16;;;;;;;112.95;39.22;;;11.20;99.90;;;;;;5105727;28;20115;-67
2022/10/14 05:02:42;;;;;;;112.55;41.75;;;11.20;99.90;;;;;;5097576;28;20481;-67
2022/10/14 05:05:09;;;;;;;113.43;41.95;;;11.20;99.90;;;;;;5089027;28;20039;-66
2022/10/14 05:07:36;;;;;;;120.65;43.58;;;11.20;99.90;;;;;;5092562;28;20036;-66
2022/10/14 05:10:03;;;;;;;127.43;44.63;;;11.20;99.90;;;;;;5102553;28;20811;-66
2022/10/14 05:12:30;;;;;;;146.50;48.80;;;11.20;99.90;;;;;;5104699;28;20472;-66
2022/10/14 05:14:56;;;;;;;122.60;45.08;;;11.20;99.90;;;;;;5105875;28;20083;-67
2022/10/14 05:17:21;;;;;;;103.68;38.95;;;11.30;99.90;;;;;;5107248;28;20074;-66
2022/10/14 05:19:47;;;;;;;107.45;42.75;;;11.20;99.90;;;;;;5106133;28;20147;-66
2022/10/14 05:22:13;;;;;;;113.88;41.50;;;11.30;99.90;;;;;;5107666;28;20485;-67
2022/10/14 05:24:38;;;;;;;109.35;39.25;;;11.20;99.90;;;;;;5091630;28;20048;-66
2022/10/14 05:27:05;;;;;;;115.03;39.65;;;11.20;99.90;;;;;;5091618;28;20044;-67
2022/10/14 05:29:30;;;;;;;116.45;43.53;;;11.20;99.90;;;;;;5101465;28;20059;-67
2022/10/14 05:31:56;;;;;;;112.07;42.03;;;11.40;99.90;;;;;;5107699;28;20070;-67
2022/10/14 05:34:21;;;;;;;118.80;44.40;;;11.30;99.90;;;;;;5106016;28;20043;-67
2022/10/14 05:36:47;;;;;;;95.60;39.55;;;11.20;99.90;;;;;;5108088;28;20039;-66
2022/10/14 05:39:13;;;;;;;113.55;41.28;;;11.20;99.90;;;;;;5102258;28;20407;-67
2022/10/14 05:41:38;;;;;;;116.03;39.42;;;11.20;99.90;;;;;;5107611;28;20036;-67
2022/10/14 05:44:04;;;;;;;100.72;42.15;;;11.20;99.90;;;;;;5111542;28;20039;-67
2022/10/14 05:46:30;;;;;;;89.15;40.45;;;11.20;99.90;;;;;;5111038;28;20047;-67
2022/10/14 05:48:56;;;;;;;110.43;40.55;;;11.20;99.90;;;;;;5111467;28;20047;-66
2022/10/14 05:51:23;;;;;;;90.50;39.22;;;11.20;99.90;;;;;;5105420;28;20043;-67
2022/10/14 05:53:48;;;;;;;94.30;40.03;;;11.20;99.90;;;;;;5110805;28;20468;-66
2022/10/14 05:56:14;;;;;;;105.55;42.22;;;11.20;99.90;;;;;;5103956;28;20075;-66
2022/10/14 05:58:40;;;;;;;99.85;39.88;;;11.20;99.90;;;;;;5103035;28;20554;-66
2022/10/14 06:01:08;;;;;;;96.28;44.05;;;11.20;99.90;;;;;;5111228;28;20123;-67
2022/10/14 06:03:34;;;;;;;105.20;44.78;;;11.20;99.90;;;;;;5104273;28;20494;-66
2022/10/14 06:06:00;;;;;;;118.68;45.15;;;11.20;99.90;;;;;;5096495;28;20043;-66
2022/10/14 06:08:26;;;;;;;108.40;47.15;;;11.20;99.90;;;;;;5101553;28;20582;-66
2022/10/14 06:10:53;;;;;;;110.45;47.10;;;11.20;99.90;;;;;;5091227;28;20093;-66
2022/10/14 06:13:19;;;;;;;118.28;47.50;;;11.20;99.90;;;;;;5105498;28;20130;-67
2022/10/14 06:15:44;;;;;;;115.95;48.20;;;11.20;99.90;;;;;;5104182;28;20075;-66
2022/10/14 06:18:10;;;;;;;102.10;45.25;;;11.20;99.90;;;;;;5107711;28;20082;-66
2022/10/14 06:20:36;;;;;;;109.55;48.28;;;11.10;99.90;;;;;;5106717;28;20059;-66
2022/10/14 06:23:02;;;;;;;115.93;48.03;;;11.20;99.90;;;;;;5101240;28;20101;-66
2022/10/14 06:25:29;;;;;;;98.13;46.00;;;11.20;99.90;;;;;;5095384;28;20047;-66
2022/10/14 06:28:02;;;;;;;109.00;47.00;;;11.20;99.90;;;;;;5100084;28;20114;-66
2022/10/14 06:30:27;;;;;;;108.82;49.83;;;11.20;99.90;;;;;;5101445;28;20128;-67
2022/10/14 06:32:53;;;;;;;100.35;45.97;;;11.20;99.90;;;;;;5102336;27;20044;-67
2022/10/14 06:35:19;;;;;;;108.50;46.25;;;11.20;99.90;;;;;;5108358;28;20477;-66
2022/10/14 06:37:45;;;;;;;93.95;46.88;;;11.20;99.90;;;;;;5096850;28;20044;-67
2022/10/14 06:40:12;;;;;;;111.03;46.05;;;11.20;99.90;;;;;;5109406;28;20394;-67
2022/10/14 06:42:38;;;;;;;100.97;47.63;;;11.20;99.90;;;;;;5110434;28;20205;-66
2022/10/14 06:45:05;;;;;;;108.35;46.75;;;11.20;99.90;;;;;;5107010;28;20404;-67
2022/10/14 06:47:31;;;;;;;103.85;48.50;;;11.30;99.90;;;;;;5109251;27;20158;-66
2022/10/14 06:49:57;;;;;;;109.82;50.70;;;11.30;99.90;;;;;;5097013;28;20700;-67
2022/10/14 06:52:23;;;;;;;110.28;50.22;;;11.30;99.90;;;;;;5099168;28;20044;-67
2022/10/14 06:54:48;;;;;;;110.95;48.65;;;11.30;99.90;;;;;;5102216;28;20506;-67
2022/10/14 06:57:14;;;;;;;103.15;46.95;;;11.40;99.90;;;;;;5102221;28;20031;-67
2022/10/14 06:59:40;;;;;;;100.78;46.03;;;11.30;99.90;;;;;;5103696;28;20051;-66
2022/10/14 07:02:06;;;;;;;104.43;47.63;;;11.30;99.90;;;;;;5098644;28;20064;-67
2022/10/14 07:04:32;;;;;;;105.85;46.83;;;11.20;99.90;;;;;;5101668;28;20378;-67
2022/10/14 07:06:57;;;;;;;108.07;46.75;;;11.20;99.90;;;;;;5096885;28;20051;-67
2022/10/14 07:09:23;;;;;;;101.65;47.65;;;11.30;99.90;;;;;;5102653;28;20036;-67
2022/10/14 07:11:50;;;;;;;96.45;44.17;;;11.30;99.90;;;;;;5089711;28;20044;-66
2022/10/14 07:14:16;;;;;;;99.72;45.70;;;11.30;99.90;;;;;;5097309;28;20123;-66
2022/10/14 07:16:45;;;;;;;98.20;42.70;;;11.30;99.90;;;;;;5109912;28;20119;-66
2022/10/14 07:19:11;;;;;;;87.38;42.47;;;11.30;99.90;;;;;;5095740;28;20043;-67
2022/10/14 07:21:37;;;;;;;94.75;41.88;;;11.40;99.90;;;;;;5099537;28;20043;-66
2022/10/14 07:24:02;;;;;;;110.55;42.60;;;11.40;99.90;;;;;;5101141;28;20042;-67
2022/10/14 07:26:32;;;;;;;86.35;41.05;;;11.40;99.90;;;;;;5100072;28;20148;-66
2022/10/14 07:28:57;;;;;;;88.53;41.05;;;11.60;99.90;;;;;;5105736;28;20043;-66
2022/10/14 07:31:23;;;;;;;82.30;38.53;;;11.00;99.90;;;;;;5096463;28;20063;-66
2022/10/14 07:33:49;;;;;;;96.70;40.95;;;11.50;99.90;;;;;;5104393;28;20036;-67
2022/10/14 07:36:16;;;;;;;79.43;39.88;;;11.60;99.90;;;;;;5092388;28;20053;-67
2022/10/14 07:38:43;;;;;;;89.63;40.88;;;11.60;99.90;;;;;;5106067;28;20504;-66
2022/10/14 07:41:16;;;;;;;94.07;42.95;;;11.60;99.90;;;;;;5109817;28;20389;-67
2022/10/14 07:43:50;;;;;;;90.25;39.75;;;11.70;99.90;;;;;;5106439;28;20087;-66
2022/10/14 07:46:28;;;;;;;97.55;41.33;;;11.70;99.90;;;;;;5096841;28;20048;-67
2022/10/14 07:48:59;;;;;;;95.97;44.95;;;11.70;99.90;;;;;;5106824;28;20679;-67
2022/10/14 07:51:26;;;;;;;85.25;41.20;;;11.80;99.90;;;;;;5101638;28;20069;-67
2022/10/14 07:53:56;;;;;;;84.88;41.22;;;11.90;99.90;;;;;;5104980;28;20032;-67
2022/10/14 07:56:22;;;;;;;98.45;42.72;;;11.90;99.90;;;;;;5102478;28;20036;-67
2022/10/14 07:58:48;;;;;;;86.50;41.05;;;12.00;99.90;;;;;;5108655;28;20437;-67
2022/10/14 08:01:15;;;;;;;86.95;43.33;;;12.00;99.90;;;;;;5094967;28;20119;-67
2022/10/14 08:03:42;;;;;;;96.07;42.97;;;12.00;99.90;;;;;;5092826;28;20035;-67
2022/10/14 08:06:08;;;;;;;85.25;40.80;;;12.00;99.90;;;;;;5100658;28;20142;-66
2022/10/14 08:08:34;;;;;;;88.88;39.67;;;12.10;99.90;;;;;;5106545;28;20096;-67
2022/10/14 08:11:06;;;;;;;90.82;39.97;;;12.10;99.90;;;;;;5108121;28;20112;-67
2022/10/14 08:13:33;;;;;;;83.50;40.55;;;12.20;99.90;;;;;;5107861;28;20496;-67
2022/10/14 08:15:58;;;;;;;91.93;41.65;;;12.20;99.90;;;;;;5108004;28;20035;-67
2022/10/14 08:18:25;;;;;;;80.93;38.53;;;12.20;99.90;;;;;;5107553;28;20054;-67
2022/10/14 08:20:57;;;;;;;92.43;40.25;;;12.30;99.90;;;;;;5084308;27;20498;-65
2022/10/14 08:23:23;;;;;;;87.53;41.67;;;12.30;99.90;;;;;;5073500;28;20790;-66
2022/10/14 08:25:49;;;;;;;99.32;45.03;;;12.30;99.90;;;;;;5063854;28;20045;-66
2022/10/14 08:28:15;;;;;;;98.50;43.13;;;12.30;99.90;;;;;;5061511;28;20114;-66
2022/10/14 08:30:40;;;;;;;92.05;43.22;;;12.40;99.90;;;;;;5078316;28;20076;-66
2022/10/14 08:33:06;;;;;;;81.72;41.00;;;12.40;99.90;;;;;;5066437;28;20040;-66
2022/10/14 08:35:32;;;;;;;89.60;43.40;;;12.40;99.90;;;;;;5066335;28;20576;-66
2022/10/14 08:37:58;;;;;;;88.03;40.65;;;12.50;99.90;;;;;;5064093;28;20052;-66
2022/10/14 08:40:26;;;;;;;85.28;40.65;;;12.50;99.90;;;;;;5071132;28;20390;-66
2022/10/14 08:43:04;;;;;;;80.88;39.50;;;12.50;99.90;;;;;;5067643;28;20831;-66
2022/10/14 08:45:37;;;;;;;86.95;40.63;;;12.50;99.90;;;;;;5057774;28;20041;-66
2022/10/14 08:48:13;;;;;;;87.32;40.50;;;12.60;99.90;;;;;;5068896;28;20048;-66
2022/10/14 08:50:51;;;;;;;82.53;39.33;;;12.60;99.90;;;;;;5055911;28;20511;-66
2022/10/14 08:53:31;;;;;;;88.60;39.55;;;12.60;99.90;;;;;;5039911;28;20139;-66
2022/10/14 08:55:59;;;;;;;86.25;41.10;;;12.60;99.90;;;;;;5042927;28;20049;-66
2022/10/14 08:58:41;;;;;;;;;;;12.70;99.90;;;;;;5058297;28;20501;-66
2022/10/14 09:01:23;;;;;;;97.70;43.00;;;12.70;99.90;;;;;;5057743;28;19925;-66
2022/10/14 09:03:52;;;;;;;92.78;40.60;;;12.70;99.90;;;;;;5057909;28;20064;-66
2022/10/14 09:06:18;;;;;;;100.97;46.35;;;12.70;99.90;;;;;;5059520;28;20052;-66
2022/10/14 09:08:47;;;;;;;98.05;47.15;;;12.70;99.90;;;;;;5062412;28;20052;-66
2022/10/14 09:11:16;;;;;;;89.70;41.72;;;12.80;99.90;;;;;;5073956;28;20040;-66
2022/10/14 09:13:47;;;;;;;99.72;45.90;;;12.80;99.90;;;;;;5080830;28;20032;-66
2022/10/14 09:16:45;;;;;;;96.53;45.15;;;12.90;99.90;;;;;;5069760;28;20076;-66
2022/10/14 09:19:37;;;;;;;93.28;46.30;;;12.90;99.90;;;;;;5056268;28;20060;-66
2022/10/14 09:22:11;;;;;;;101.95;46.67;;;12.90;99.90;;;;;;5052345;28;20476;-66
2022/10/14 09:24:37;;;;;;;95.00;44.00;;;13.00;99.90;;;;;;5056277;28;20041;-66
2022/10/14 09:27:06;;;;;;;99.47;44.63;;;13.00;99.90;;;;;;5058663;28;20044;-66
2022/10/14 09:29:45;;;;;;;99.53;45.38;;;13.00;99.90;;;;;;5054124;28;20044;-66
2022/10/14 09:32:31;;;;;;;105.95;46.95;;;13.00;99.90;;;;;;5049393;28;20505;-66
2022/10/14 09:34:58;;;;;;;105.88;47.92;;;13.10;99.90;;;;;;5050936;28;20048;-66
2022/10/14 09:37:31;;;;;;;108.38;47.88;;;13.00;99.90;;;;;;5063656;28;20394;-66
2022/10/14 09:40:24;;;;;;;112.95;48.60;;;13.10;99.90;;;;;;5041263;28;20041;-66
2022/10/14 09:43:00;;;;;;;128.38;53.47;;;13.10;99.90;;;;;;5038689;28;20580;-66
2022/10/14 09:45:29;;;;;;;135.02;51.83;;;13.10;99.90;;;;;;5065535;28;20114;-66
2022/10/14 09:48:06;;;;;;;137.52;57.35;;;13.10;99.90;;;;;;5060436;28;20114;-66
2022/10/14 09:50:41;;;;;;;120.43;50.33;;;13.10;99.90;;;;;;5050815;28;20419;-66
2022/10/14 09:53:20;;;;;;;127.45;52.90;;;13.20;99.90;;;;;;5048207;28;20041;-66
2022/10/14 09:55:48;;;;;;;126.85;54.10;;;13.20;99.90;;;;;;5050384;28;20083;-66
2022/10/14 09:58:22;;;;;;;114.20;49.03;;;13.20;99.90;;;;;;5049961;28;20033;-66
2022/10/14 10:00:55;;;;;;;122.93;51.75;;;13.20;99.90;;;;;;5048407;28;20075;-65
2022/10/14 10:03:27;;;;;;;110.22;50.58;;;13.10;99.90;;;;;;5042609;28;20046;-66
2022/10/14 10:06:05;;;;;;;116.18;52.40;;;13.10;99.90;;;;;;5045162;28;20171;-66
2022/10/14 10:08:32;;;;;;;129.65;54.35;;;13.20;99.90;;;;;;5049316;28;20051;-66
2022/10/14 10:11:27;;;;;;;129.43;53.50;;;13.10;99.90;;;;;;5049267;28;20745;-66
2022/10/14 10:13:53;;;;;;;117.45;50.22;;;13.20;99.90;;;;;;5046689;28;20056;-66
2022/10/14 10:16:33;;;;;;;113.78;52.55;;;13.10;99.90;;;;;;5041957;28;20504;-66
2022/10/14 10:19:32;;;;;;;125.90;51.22;;;13.20;99.90;;;;;;5037935;28;20429;-66
2022/10/14 10:22:25;;;;;;;135.43;54.10;;;13.20;99.90;;;;;;5041561;28;20049;-66
2022/10/14 10:25:00;;;;;;;127.25;53.33;;;13.20;99.90;;;;;;5057698;28;20056;-66
2022/10/14 10:27:29;;;;;;;118.35;51.22;;;13.20;99.90;;;;;;5049352;28;20041;-66
2022/10/14 10:29:55;;;;;;;119.05;54.00;;;13.20;99.90;;;;;;5049265;28;20517;-66
2022/10/14 10:32:32;;;;;;;131.20;53.55;;;13.20;99.90;;;;;;5037676;28;20069;-66
2022/10/14 10:35:01;;;;;;;119.13;53.17;;;13.20;99.90;;;;;;5042942;28;20386;-66
2022/10/14 10:37:35;;;;;;;113.60;52.10;;;13.20;99.90;;;;;;5048045;28;20289;-66
2022/10/14 10:40:23;;;;;;;119.85;54.05;;;13.20;99.90;;;;;;5035057;28;20045;-66
2022/10/14 10:43:17;;;;;;;116.80;54.33;;;13.20;99.90;;;;;;5044572;28;20087;-65
2022/10/14 10:45:49;;;;;;;122.07;53.45;;;13.10;99.90;;;;;;5049329;28;20079;-66
2022/10/14 10:48:23;;;;;;;119.15;49.65;;;13.20;99.90;;;;;;5050074;28;20076;-66
2022/10/14 10:51:25;;;;;;;129.07;55.80;;;13.10;99.90;;;;;;5048154;28;20130;-66
2022/10/14 10:54:24;;;;;;;141.00;54.90;;;13.20;99.90;;;;;;5044100;28;20517;-66
2022/10/14 10:56:57;;;;;;;118.68;50.63;;;13.10;99.90;;;;;;5043827;28;20068;-66
2022/10/14 10:59:50;;;;;;;112.55;52.58;;;13.10;99.90;;;;;;5050272;28;20045;-66
2022/10/14 11:02:36;;;;;;;115.07;48.90;;;13.20;99.90;;;;;;5048839;28;20051;-66
2022/10/14 11:05:12;;;;;;;111.60;47.58;;;13.20;99.90;;;;;;5048250;28;20053;-66
2022/10/14 11:13:40;;;;;;;101.90;46.42;;;13.30;99.90;;;;;;5048626;28;20041;-65
2022/10/14 11:16:37;;;;;;;103.45;42.80;;;13.20;99.90;;;;;;5049103;28;20068;-66
2022/10/14 11:19:12;;;;;;;89.68;41.53;;;13.20;99.90;;;;;;5047789;28;20088;-66
2022/10/14 11:21:41;;;;;;;106.30;47.17;;;13.20;99.90;;;;;;5048601;28;20045;-66
2022/10/14 11:24:13;;;;;;;101.22;42.70;;;13.10;99.90;;;;;;5047277;28;20124;-66
2022/10/14 11:27:10;;;;;;;92.55;40.92;;;13.20;99.90;;;;;;5048216;28;20048;-66
2022/10/14 11:30:05;;;;;;;102.45;44.15;;;13.20;99.90;;;;;;5035453;28;20076;-66
2022/10/14 11:32:49;;;;;;;95.55;41.30;;;13.20;99.90;;;;;;5035987;28;20036;-66
2022/10/14 11:35:21;;;;;;;94.85;40.25;;;13.20;99.90;;;;;;5052560;28;20083;-66
2022/10/14 11:38:08;;;;;;;102.10;44.08;;;13.20;99.90;;;;;;5047872;28;20075;-66
2022/10/14 11:40:44;;;;;;;91.15;41.25;;;13.20;99.90;;;;;;5048376;28;20048;-66
2022/10/14 11:43:21;;;;;;;90.45;41.17;;;13.30;99.90;;;;;;5046486;28;20175;-66
2022/10/14 11:46:19;;;;;;;97.07;44.22;;;13.30;99.90;;;;;;5035786;28;20430;-66
2022/10/14 11:48:53;;;;;;;108.75;46.80;;;13.30;99.90;;;;;;5049646;28;20155;-66
2022/10/14 11:51:32;;;;;;;109.75;50.15;;;13.40;99.90;;;;;;5048881;28;20456;-66
2022/10/14 11:53:58;;;;;;;;;;;13.30;99.90;;;;;;5039466;28;20045;-66
2022/10/14 11:56:38;;;;;;;129.93;54.85;;;13.50;99.90;;;;;;5047484;28;20385;-66
2022/10/14 11:59:20;;;;;;;132.40;56.38;;;13.50;99.90;;;;;;5048232;28;20048;-66
2022/10/14 12:01:49;;;;;;;140.55;58.33;;;13.60;99.90;;;;;;5050081;28;20045;-66
2022/10/14 12:04:23;;;;;;;150.90;65.03;;;13.60;99.90;;;;;;5044941;28;20044;-66
2022/10/14 12:07:17;;;;;;;162.02;64.57;;;13.60;99.90;;;;;;5047369;28;20895;-66
2022/10/14 12:09:52;;;;;;;152.52;66.05;;;13.70;99.90;;;;;;5022638;28;20057;-66
2022/10/14 12:12:21;;;;;;;156.18;65.82;;;13.70;99.90;;;;;;5045952;28;20056;-66
2022/10/14 12:15:00;;;;;;;150.65;61.95;;;13.70;99.90;;;;;;5042088;28;20055;-65
2022/10/14 12:17:36;;;;;;;154.07;66.10;;;13.70;99.90;;;;;;5041755;28;20041;-66
2022/10/14 12:20:14;;;;;;;143.20;64.53;;;13.80;99.90;;;;;;5046918;28;20415;-66
2022/10/14 12:22:41;;;;;;;162.95;68.35;;;13.80;99.90;;;;;;5045795;28;20075;-66
2022/10/14 12:25:16;;;;;;;180.20;72.68;;;13.80;99.90;;;;;;5046483;28;20060;-66
2022/10/14 12:27:42;;;;;;;165.50;72.40;;;13.90;99.90;;;;;;5046299;28;20045;-66
2022/10/14 12:30:29;;;;;;;184.75;76.22;;;13.90;99.90;;;;;;5048126;28;20044;-66
2022/10/14 12:33:04;;;;;;;183.80;71.35;;;13.90;99.90;;;;;;5039069;28;20048;-66
2022/10/14 12:36:25;;;;;;;179.20;74.88;;;14.00;99.90;;;;;;5039193;28;20865;-66
2022/10/14 12:39:18;;;;;;;168.80;69.95;;;13.90;99.90;;;;;;4965600;28;20126;-65
2022/10/14 12:41:53;;;;;;;172.35;74.82;;;14.00;99.90;;;;;;5036625;28;20041;-66
2022/10/14 12:44:21;;;;;;;170.32;77.85;;;14.00;99.90;;;;;;5032500;28;20064;-66
2022/10/14 12:46:50;;;;;;;181.20;80.20;;;14.00;99.90;;;;;;5046943;28;20057;-66
2022/10/14 12:49:33;;;;;;;184.55;93.25;;;14.10;99.90;;;;;;5046721;28;20049;-66
2022/10/14 12:52:08;;;;;;;191.20;87.90;;;14.10;99.90;;;;;;5046295;28;20045;-66